createdAt,value
2018-04-23T00:02:24.717Z,47.42
2018-04-23T00:07:15.741Z,47.42
2018-04-23T00:12:06.777Z,47.91
2018-04-23T00:16:57.826Z,47.67
2018-04-23T00:21:48.836Z,47.79
2018-04-23T00:26:39.912Z,47.88
2018-04-23T00:31:31.672Z,48.20
2018-04-23T00:36:23.432Z,48.40
2018-04-23T00:41:14.461Z,48.50
2018-04-23T00:46:05.512Z,48.69
2018-04-23T00:50:56.545Z,48.88
2018-04-23T00:55:47.618Z,49.03
2018-04-23T01:00:38.632Z,49.21
2018-04-23T01:05:29.667Z,49.23
2018-04-23T01:10:20.704Z,49.20
2018-04-23T01:15:11.710Z,49.28
2018-04-23T01:20:02.721Z,49.38
2018-04-23T01:24:53.720Z,49.96
2018-04-23T01:29:45.512Z,50.20
2018-04-23T01:34:36.524Z,50.47
2018-04-23T01:39:27.575Z,50.61
2018-04-23T01:44:18.573Z,50.98
2018-04-23T01:49:09.570Z,50.90
2018-04-23T01:54:01.304Z,50.98
2018-04-23T01:58:53.043Z,51.23
2018-04-23T02:03:44.854Z,51.37
2018-04-23T02:08:37.343Z,51.84
2018-04-23T02:13:29.095Z,52.25
2018-04-23T02:18:20.115Z,52.52
2018-04-23T02:23:11.851Z,52.57
2018-04-23T02:28:03.624Z,52.92
2018-04-23T02:32:54.672Z,53.03
2018-04-23T02:37:45.675Z,53.22
2018-04-23T02:42:37.642Z,53.72
2018-04-23T02:47:28.640Z,53.75
2018-04-23T02:52:19.676Z,53.90
2018-04-23T02:57:10.742Z,54.25
2018-04-23T03:02:02.484Z,54.48
2018-04-23T03:06:54.230Z,54.68
2018-04-23T03:11:46.014Z,54.92
2018-04-23T03:16:37.017Z,55.48
2018-04-23T03:21:28.058Z,55.93
2018-04-23T03:26:19.062Z,55.97
2018-04-23T03:31:10.837Z,56.46
2018-04-23T03:36:01.862Z,56.34
2018-04-23T03:40:53.075Z,56.48
2018-04-23T03:45:44.071Z,57.08
2018-04-23T03:50:35.149Z,57.67
2018-04-23T03:55:26.169Z,57.66
2018-04-23T04:00:18.025Z,57.58
2018-04-23T04:05:09.784Z,57.79
2018-04-23T04:10:00.803Z,58.18
2018-04-23T04:15:11.452Z,58.72
2018-04-23T04:20:02.456Z,59.04
2018-04-23T04:24:53.467Z,59.37
2018-04-23T04:29:44.492Z,59.64
2018-04-23T04:34:36.999Z,59.84
2018-04-23T04:39:28.807Z,59.71
2018-04-23T04:44:19.807Z,59.75
2018-04-23T04:49:10.886Z,59.94
2018-04-23T04:54:02.675Z,59.84
2018-04-23T04:58:54.463Z,60.00
2018-04-23T05:03:46.211Z,60.00
2018-04-23T05:08:38.059Z,59.98
2018-04-23T05:13:29.795Z,60.04
2018-04-23T05:18:21.650Z,59.97
2018-04-23T05:23:12.624Z,60.01
2018-04-23T05:28:04.432Z,60.16
2018-04-23T05:32:55.458Z,59.94
2018-04-23T05:37:46.534Z,59.71
2018-04-23T05:42:38.447Z,59.66
2018-04-23T05:47:29.450Z,59.50
2018-04-23T05:52:20.468Z,59.59
2018-04-23T05:57:11.545Z,59.15
2018-04-23T06:02:03.412Z,59.04
2018-04-23T06:06:54.452Z,59.02
2018-04-23T06:11:45.459Z,58.30
2018-04-23T06:16:36.533Z,57.91
2018-04-23T06:21:27.660Z,57.29
2018-04-23T06:26:18.652Z,57.80
2018-04-23T06:31:09.687Z,57.21
2018-04-23T06:36:00.686Z,57.22
2018-04-23T06:40:51.696Z,57.09
2018-04-23T06:45:42.700Z,57.01
2018-04-23T06:50:34.460Z,57.05
2018-04-23T06:55:25.560Z,57.14
2018-04-23T07:00:17.346Z,56.83
2018-04-23T07:05:08.481Z,56.93
2018-04-23T07:09:59.411Z,56.73
2018-04-23T07:14:50.407Z,56.50
2018-04-23T07:19:41.513Z,56.37
2018-04-23T07:24:33.372Z,56.19
2018-04-23T07:29:24.383Z,56.44
2018-04-23T07:34:15.413Z,56.32
2018-04-23T07:39:06.518Z,53.90
2018-04-23T07:43:57.543Z,50.46
2018-04-23T07:48:49.308Z,47.56
2018-04-23T07:53:40.328Z,45.75
2018-04-23T07:58:31.407Z,44.75
2018-04-23T08:03:22.405Z,43.54
2018-04-23T08:08:13.500Z,44.08
2018-04-23T08:13:04.575Z,43.33
2018-04-23T08:17:55.575Z,43.52
2018-04-23T08:22:49.724Z,43.28
2018-04-23T08:27:40.719Z,44.03
2018-04-23T08:32:31.787Z,42.51
2018-04-23T08:37:22.794Z,43.77
2018-04-23T08:42:13.892Z,43.93
2018-04-23T08:47:04.940Z,44.35
2018-04-23T08:51:55.963Z,44.77
2018-04-23T08:56:46.999Z,44.75
2018-04-23T09:01:37.993Z,44.76
2018-04-23T09:06:29.739Z,45.01
2018-04-23T09:11:21.529Z,44.94
2018-04-23T09:16:12.617Z,44.26
2018-04-23T09:21:03.656Z,44.44
2018-04-23T09:25:54.731Z,44.19
2018-04-23T09:30:46.197Z,44.66
2018-04-23T09:35:37.268Z,46.23
2018-04-23T09:40:28.421Z,47.76
2018-04-23T09:45:20.324Z,48.56
2018-04-23T09:50:11.402Z,49.75
2018-04-23T09:55:02.391Z,50.58
2018-04-23T09:59:53.407Z,50.39
2018-04-23T10:04:44.551Z,51.16
2018-04-23T10:09:35.560Z,51.70
2018-04-23T10:14:26.660Z,51.09
2018-04-23T10:19:17.688Z,51.75
2018-04-23T10:24:08.806Z,52.95
2018-04-23T10:28:59.812Z,53.96
2018-04-23T10:33:50.867Z,55.05
2018-04-23T10:38:41.972Z,55.52
2018-04-23T10:43:33.025Z,55.13
2018-04-23T10:48:24.210Z,54.41
2018-04-23T10:53:15.215Z,54.56
2018-04-23T10:58:06.228Z,54.60
2018-04-23T11:02:57.979Z,52.77
2018-04-23T11:07:49.042Z,52.38
2018-04-23T11:12:40.055Z,52.08
2018-04-23T11:17:31.868Z,50.67
2018-04-23T11:22:22.871Z,51.16
2018-04-23T11:27:14.612Z,48.97
2018-04-23T11:32:06.440Z,48.15
2018-04-23T11:36:57.451Z,46.89
2018-04-23T11:41:48.519Z,46.86
2018-04-23T11:46:39.870Z,46.27
2018-04-23T11:51:31.196Z,45.46
2018-04-23T11:56:22.280Z,45.07
2018-04-23T12:01:14.037Z,44.62
2018-04-23T12:06:05.908Z,43.70
2018-04-23T12:10:56.931Z,43.52
2018-04-23T12:15:47.931Z,43.59
2018-04-23T12:20:38.968Z,44.39
2018-04-23T12:25:29.967Z,42.90
2018-04-23T12:30:21.741Z,43.05
2018-04-23T12:35:12.735Z,43.34
2018-04-23T12:40:04.552Z,42.90
2018-04-23T12:44:55.578Z,42.46
2018-04-23T12:49:46.642Z,41.41
2018-04-23T12:54:37.657Z,40.96
2018-04-23T12:59:29.540Z,40.35
2018-04-23T13:04:20.625Z,42.00
2018-04-23T13:09:12.391Z,42.55
2018-04-23T13:14:03.390Z,42.85
2018-04-23T13:18:54.456Z,42.90
2018-04-23T13:23:45.479Z,44.60
2018-04-23T13:28:36.644Z,44.56
2018-04-23T13:33:29.224Z,44.81
2018-04-23T13:38:27.144Z,44.33
2018-04-23T13:43:18.167Z,42.81
2018-04-23T13:48:09.280Z,42.55
2018-04-23T13:53:00.295Z,41.46
2018-04-23T13:57:51.411Z,40.71
2018-04-23T14:02:42.437Z,39.77
2018-04-23T14:07:33.485Z,39.28
2018-04-23T14:12:24.522Z,38.43
2018-04-23T14:17:15.536Z,38.20
2018-04-23T14:22:06.607Z,36.65
2018-04-23T14:26:58.355Z,37.00
2018-04-23T14:31:50.097Z,36.93
2018-04-23T14:36:41.181Z,36.86
2018-04-23T14:41:32.207Z,36.98
2018-04-23T14:46:23.212Z,37.11
2018-04-23T14:51:14.278Z,37.01
2018-04-23T14:56:06.048Z,37.00
2018-04-23T15:00:58.193Z,36.95
2018-04-23T15:05:49.372Z,36.87
2018-04-23T15:10:40.541Z,36.93
2018-04-23T15:15:31.643Z,36.51
2018-04-23T15:20:23.422Z,35.98
2018-04-23T15:25:14.559Z,35.67
2018-04-23T15:30:05.722Z,35.18
2018-04-23T15:34:57.495Z,35.46
2018-04-23T15:39:48.499Z,34.51
2018-04-23T15:44:40.272Z,33.37
2018-04-23T15:49:31.308Z,32.72
2018-04-23T15:54:22.375Z,32.21
2018-04-23T15:59:14.164Z,31.74
2018-04-23T16:04:05.280Z,32.11
2018-04-23T16:08:56.295Z,31.47
2018-04-23T16:13:47.320Z,30.88
2018-04-23T16:18:38.329Z,30.62
2018-04-23T16:23:29.416Z,31.40
2018-04-23T16:28:20.475Z,32.12
2018-04-23T16:33:11.532Z,32.55
2018-04-23T16:38:02.543Z,32.98
2018-04-23T16:42:53.555Z,33.18
2018-04-23T16:47:44.599Z,32.73
2018-04-23T16:52:35.607Z,32.59
2018-04-23T16:57:26.742Z,32.58
2018-04-23T17:02:17.782Z,32.41
2018-04-23T17:07:08.787Z,32.57
2018-04-23T17:11:59.811Z,33.14
2018-04-23T17:16:50.823Z,33.43
2018-04-23T17:21:41.951Z,33.46
2018-04-23T17:26:32.977Z,33.24
2018-04-23T17:31:24.049Z,33.35
2018-04-23T17:36:15.149Z,33.10
2018-04-23T17:41:06.173Z,33.32
2018-04-23T17:45:57.992Z,33.61
2018-04-23T17:50:49.007Z,34.11
2018-04-23T17:55:40.108Z,34.59
2018-04-23T18:00:31.962Z,35.06
2018-04-23T18:05:22.984Z,35.79
2018-04-23T18:10:14.024Z,36.41
2018-04-23T18:15:05.047Z,36.95
2018-04-23T18:19:56.092Z,37.44
2018-04-23T18:24:47.123Z,37.87
2018-04-23T18:29:38.121Z,38.29
2018-04-23T18:34:29.120Z,38.58
2018-04-23T18:39:20.206Z,38.94
2018-04-23T18:44:11.279Z,39.23
2018-04-23T18:49:02.271Z,39.62
2018-04-23T18:53:54.031Z,40.21
2018-04-23T18:58:45.780Z,40.34
2018-04-23T19:03:36.900Z,40.48
2018-04-23T19:08:27.896Z,40.73
2018-04-23T19:13:18.892Z,40.94
2018-04-23T19:18:09.962Z,41.11
2018-04-23T19:23:01.008Z,41.34
2018-04-23T19:27:52.045Z,41.71
2018-04-23T19:32:43.053Z,41.82
2018-04-23T19:37:34.055Z,42.08
2018-04-23T19:42:25.301Z,42.46
2018-04-23T19:47:16.324Z,42.90
2018-04-23T19:52:07.330Z,43.13
2018-04-23T19:56:58.331Z,43.49
2018-04-23T20:01:50.083Z,43.86
2018-04-23T20:06:41.893Z,44.29
2018-04-23T20:11:32.929Z,44.61
2018-04-23T20:16:23.936Z,45.04
2018-04-23T20:21:15.006Z,45.41
2018-04-23T20:26:06.056Z,45.60
2018-04-23T20:30:57.063Z,45.71
2018-04-23T20:35:48.072Z,45.63
2018-04-23T20:40:39.071Z,45.58
2018-04-23T20:45:30.828Z,45.32
2018-04-23T20:50:22.616Z,44.94
2018-04-23T20:55:13.628Z,44.39
2018-04-23T21:00:04.640Z,44.18
2018-04-23T21:04:55.648Z,43.66
2018-04-23T21:09:46.696Z,42.70
2018-04-23T21:14:37.699Z,43.09
2018-04-23T21:19:28.750Z,42.95
2018-04-23T21:24:19.771Z,42.72
2018-04-23T21:29:10.823Z,42.93
2018-04-23T21:34:01.846Z,42.82
2018-04-23T21:38:52.887Z,43.05
2018-04-23T21:43:44.717Z,43.09
2018-04-23T21:48:36.483Z,43.12
2018-04-23T21:53:27.483Z,43.38
2018-04-23T21:58:18.572Z,43.58
2018-04-23T22:03:09.600Z,43.82
2018-04-23T22:08:00.643Z,43.93
2018-04-23T22:12:51.751Z,44.11
2018-04-23T22:17:42.752Z,44.44
2018-04-23T22:22:33.754Z,44.59
2018-04-23T22:27:24.758Z,44.66
2018-04-23T22:32:16.524Z,44.68
2018-04-23T22:37:07.553Z,44.70
2018-04-23T22:41:58.560Z,44.75
2018-04-23T22:46:49.986Z,44.94
2018-04-23T22:51:41.031Z,45.07
2018-04-23T22:56:32.127Z,45.23
2018-04-23T23:01:23.129Z,45.51
2018-04-23T23:06:14.886Z,45.82
2018-04-23T23:11:06.670Z,46.06
2018-04-23T23:15:57.715Z,46.35
2018-04-23T23:20:49.488Z,46.66
2018-04-23T23:25:41.235Z,46.61
2018-04-23T23:30:32.269Z,46.73
2018-04-23T23:35:23.255Z,47.02
2018-04-23T23:40:15.028Z,47.35
2018-04-23T23:45:06.163Z,47.66
2018-04-23T23:49:57.200Z,47.84
2018-04-23T23:54:48.201Z,48.08
2018-04-23T23:59:39.257Z,48.32
